Time;durP1;ratioP1;P1;durP2;ratioP2;P2;SDS_P1;SDS_P2;PMS_P1;PMS_P2;Temp;Humidity;BMP_temperature;BMP_pressure;BME280_temperature;BME280_humidity;BME280_pressure;Samples;Min_cycle;Max_cycle;Signal;HPM_P1;HPM_P2
2023/12/05 00:00:41;;;;;;;0.20;0.10;;;;;;;;;;4946184;28;20541;-84
2023/12/05 00:03:30;;;;;;;3.05;0.55;;;;;;;;;;4956024;28;20050;-86
2023/12/05 00:06:06;;;;;;;0.20;0.10;;;;;;;;;;4939150;28;20135;-85
2023/12/05 00:08:38;;;;;;;0.38;0.38;;;;;;;;;;4988748;28;20043;-87
2023/12/05 00:11:07;;;;;;;0.20;0.10;;;;;;;;;;4962185;28;20050;-84
2023/12/05 00:13:37;;;;;;;0.20;0.10;;;;;;;;;;4959216;28;20043;-82
2023/12/05 00:16:04;;;;;;;0.20;0.10;;;;;;;;;;4977740;28;20125;-83
2023/12/05 00:18:30;;;;;;;0.20;0.00;;;;;;;;;;4958054;28;20265;-81
2023/12/05 00:20:56;;;;;;;0.20;0.10;;;;;;;;;;4952240;28;20070;-82
2023/12/05 00:23:22;;;;;;;0.20;0.00;;;;;;;;;;4965901;28;20520;-80
2023/12/05 00:25:48;;;;;;;0.20;0.10;;;;;;;;;;4969018;28;20043;-82
2023/12/05 00:28:14;;;;;;;0.20;0.10;;;;;;;;;;4956587;28;20070;-85
2023/12/05 00:30:40;;;;;;;0.47;0.35;;;;;;;;;;4970027;28;20030;-86
2023/12/05 00:33:06;;;;;;;0.55;0.47;;;;;;;;;;4975280;28;20046;-83
2023/12/05 00:35:32;;;;;;;0.20;0.10;;;;;;;;;;5002102;23;20513;-83
2023/12/05 00:37:58;;;;;;;0.20;0.10;;;;;;;;;;4965577;28;20755;-83
2023/12/05 00:40:29;;;;;;;0.20;0.00;;;;;;;;;;5005540;28;20042;-80
2023/12/05 00:42:59;;;;;;;0.25;0.17;;;;;;;;;;4959752;28;20048;-83
2023/12/05 00:45:25;;;;;;;0.20;0.10;;;;;;;;;;4999202;28;20352;-83
2023/12/05 00:47:51;;;;;;;0.30;0.20;;;;;;;;;;4982020;28;20100;-85
2023/12/05 00:50:17;;;;;;;0.20;0.10;;;;;;;;;;4948936;28;20069;-83
2023/12/05 00:52:43;;;;;;;0.20;0.10;;;;;;;;;;4970258;28;20124;-83
2023/12/05 00:55:09;;;;;;;0.20;0.20;;;;;;;;;;4990858;28;20038;-84
2023/12/05 00:57:36;;;;;;;0.20;0.10;;;;;;;;;;4958558;28;20439;-85
2023/12/05 01:00:04;;;;;;;0.20;0.10;;;;;;;;;;4958477;28;20053;-84
2023/12/05 01:02:30;;;;;;;0.20;0.10;;;;;;;;;;4994108;28;20188;-86
2023/12/05 01:04:56;;;;;;;0.20;0.10;;;;;;;;;;4976286;28;20034;-83
2023/12/05 01:07:22;;;;;;;0.20;0.10;;;;;;;;;;4957186;28;20698;-86
2023/12/05 01:09:48;;;;;;;0.38;0.28;;;;;;;;;;4975573;28;20138;-85
2023/12/05 01:12:14;;;;;;;0.20;0.10;;;;;;;;;;4960549;28;20049;-84
2023/12/05 01:14:41;;;;;;;0.20;0.10;;;;;;;;;;4973650;28;20138;-85
2023/12/05 01:17:07;;;;;;;0.20;0.10;;;;;;;;;;4973980;28;20089;-84
2023/12/05 01:19:35;;;;;;;0.73;0.28;;;;;;;;;;4944332;28;20045;-86
2023/12/05 01:22:03;;;;;;;0.20;0.10;;;;;;;;;;4968779;28;20169;-82
2023/12/05 01:24:29;;;;;;;0.20;0.10;;;;;;;;;;4980121;28;20050;-85
2023/12/05 01:26:55;;;;;;;0.20;0.10;;;;;;;;;;4976909;28;20531;-84
2023/12/05 01:29:21;;;;;;;0.20;0.10;;;;;;;;;;4968050;28;20125;-84
2023/12/05 01:31:47;;;;;;;0.20;0.10;;;;;;;;;;4948439;28;20046;-87
2023/12/05 01:34:13;;;;;;;0.20;0.10;;;;;;;;;;4984587;28;20591;-87
2023/12/05 01:36:39;;;;;;;0.20;0.10;;;;;;;;;;4960335;28;20034;-87
2023/12/05 01:39:05;;;;;;;0.20;0.10;;;;;;;;;;4944323;28;20404;-84
2023/12/05 01:41:31;;;;;;;0.20;0.10;;;;;;;;;;4946900;28;20510;-84
2023/12/05 01:43:57;;;;;;;0.20;0.13;;;;;;;;;;4942972;28;20046;-84
2023/12/05 01:46:24;;;;;;;0.20;0.10;;;;;;;;;;4945264;28;20129;-82
2023/12/05 01:48:50;;;;;;;0.20;0.10;;;;;;;;;;4942254;28;20118;-85
2023/12/05 01:51:16;;;;;;;0.20;0.10;;;;;;;;;;4972254;28;20508;-85
2023/12/05 01:53:43;;;;;;;0.20;0.10;;;;;;;;;;4944608;28;20678;-84
2023/12/05 01:56:10;;;;;;;0.20;0.10;;;;;;;;;;4951957;28;20054;-83
2023/12/05 01:58:37;;;;;;;0.40;0.40;;;;;;;;;;4948262;28;20052;-81
2023/12/05 02:01:04;;;;;;;0.20;0.10;;;;;;;;;;4988824;28;20053;-83
2023/12/05 02:03:31;;;;;;;0.20;0.10;;;;;;;;;;4973803;28;20042;-84
2023/12/05 02:05:57;;;;;;;0.20;0.10;;;;;;;;;;4975295;28;20070;-81
2023/12/05 02:08:24;;;;;;;0.20;0.10;;;;;;;;;;4974143;28;20412;-83
2023/12/05 02:10:50;;;;;;;0.20;0.00;;;;;;;;;;4971022;28;20089;-82
2023/12/05 02:13:16;;;;;;;0.20;0.10;;;;;;;;;;4966312;28;20042;-85
2023/12/05 02:15:42;;;;;;;0.20;0.00;;;;;;;;;;4957224;28;20478;-85
2023/12/05 02:18:38;;;;;;;0.20;0.13;;;;;;;;;;4947765;28;20050;-83
2023/12/05 02:21:13;;;;;;;0.20;0.10;;;;;;;;;;4926858;28;20047;-81
2023/12/05 02:23:50;;;;;;;0.20;0.10;;;;;;;;;;4969375;28;20038;-85
2023/12/05 02:26:29;;;;;;;0.20;0.00;;;;;;;;;;4968299;28;20053;-83
2023/12/05 02:28:55;;;;;;;0.40;0.10;;;;;;;;;;4976002;28;20563;-83
2023/12/05 02:31:21;;;;;;;0.20;0.10;;;;;;;;;;4968918;28;20047;-82
2023/12/05 02:33:47;;;;;;;0.20;0.10;;;;;;;;;;4986708;28;20043;-80
2023/12/05 02:36:20;;;;;;;0.20;0.00;;;;;;;;;;4971932;28;20056;-80
2023/12/05 02:38:53;;;;;;;0.20;0.00;;;;;;;;;;4984247;28;20046;-81
2023/12/05 02:41:19;;;;;;;;;;;;;;;;;;4974751;28;20050;-81
2023/12/05 02:43:47;;;;;;;0.20;0.10;;;;;;;;;;4957225;28;19929;-82
2023/12/05 02:46:14;;;;;;;0.30;0.30;;;;;;;;;;4991309;28;20046;-79
2023/12/05 02:48:41;;;;;;;0.20;0.10;;;;;;;;;;4966520;28;20042;-83
2023/12/05 02:51:07;;;;;;;0.30;0.30;;;;;;;;;;4987913;28;20042;-80
2023/12/05 02:53:33;;;;;;;0.20;0.00;;;;;;;;;;4985145;28;20117;-80
2023/12/05 02:55:59;;;;;;;0.20;0.10;;;;;;;;;;4990556;28;20075;-83
2023/12/05 02:58:25;;;;;;;0.65;0.28;;;;;;;;;;4952418;28;20054;-89
2023/12/05 03:00:51;;;;;;;0.20;0.00;;;;;;;;;;4988343;28;20046;-81
2023/12/05 03:03:17;;;;;;;0.38;0.38;;;;;;;;;;4992720;28;20038;-82
2023/12/05 03:05:43;;;;;;;0.20;0.10;;;;;;;;;;4948285;28;20042;-82
2023/12/05 03:08:09;;;;;;;0.20;0.10;;;;;;;;;;4963747;28;21769;-82
2023/12/05 03:10:35;;;;;;;0.20;0.10;;;;;;;;;;4980211;28;20046;-82
2023/12/05 03:13:01;;;;;;;0.20;0.10;;;;;;;;;;4977907;28;20049;-83
2023/12/05 03:15:27;;;;;;;0.20;0.10;;;;;;;;;;4950558;28;20047;-83
2023/12/05 03:17:53;;;;;;;1.33;0.47;;;;;;;;;;4973830;28;23026;-80
2023/12/05 03:20:19;;;;;;;0.20;0.10;;;;;;;;;;4995913;28;20045;-84
2023/12/05 03:22:45;;;;;;;0.20;0.08;;;;;;;;;;4952640;28;20043;-80
2023/12/05 03:25:12;;;;;;;0.20;0.10;;;;;;;;;;4947007;28;20049;-81
2023/12/05 03:27:38;;;;;;;0.50;0.45;;;;;;;;;;4976306;28;20072;-82
2023/12/05 03:30:04;;;;;;;0.20;0.10;;;;;;;;;;4977785;28;20038;-83
2023/12/05 03:32:31;;;;;;;0.20;0.10;;;;;;;;;;4961113;28;20598;-83
2023/12/05 03:34:56;;;;;;;0.20;0.10;;;;;;;;;;4976397;28;20126;-84
2023/12/05 03:37:22;;;;;;;0.20;0.10;;;;;;;;;;4961398;28;20035;-82
2023/12/05 03:39:49;;;;;;;0.20;0.00;;;;;;;;;;4990261;28;20043;-84
2023/12/05 03:42:15;;;;;;;0.47;0.47;;;;;;;;;;4972858;28;20035;-84
2023/12/05 03:44:40;;;;;;;0.20;0.10;;;;;;;;;;4959922;28;20886;-85
2023/12/05 03:47:06;;;;;;;0.20;0.10;;;;;;;;;;4950412;28;20122;-82
2023/12/05 03:49:32;;;;;;;0.20;0.10;;;;;;;;;;4973291;28;20050;-81
2023/12/05 03:52:01;;;;;;;0.20;0.10;;;;;;;;;;4976159;28;21981;-84
2023/12/05 03:54:27;;;;;;;0.20;0.10;;;;;;;;;;4978779;28;20068;-87
2023/12/05 03:56:53;;;;;;;0.20;0.10;;;;;;;;;;4970669;28;20046;-83
2023/12/05 03:59:19;;;;;;;0.20;0.10;;;;;;;;;;4969496;28;20046;-81
2023/12/05 04:01:45;;;;;;;0.20;0.10;;;;;;;;;;4959390;28;20049;-83
2023/12/05 04:04:11;;;;;;;0.57;0.52;;;;;;;;;;4974949;28;20149;-84
2023/12/05 04:06:37;;;;;;;0.20;0.10;;;;;;;;;;4974507;28;20125;-81
2023/12/05 04:09:04;;;;;;;1.45;0.52;;;;;;;;;;4962091;28;20042;-84
2023/12/05 04:11:31;;;;;;;0.45;0.22;;;;;;;;;;4943035;28;20027;-81
2023/12/05 04:13:58;;;;;;;0.20;0.20;;;;;;;;;;4972324;28;20173;-83
2023/12/05 04:16:24;;;;;;;0.20;0.03;;;;;;;;;;4972309;28;20043;-82
2023/12/05 04:18:50;;;;;;;0.50;0.30;;;;;;;;;;4986098;28;20057;-84
2023/12/05 04:21:19;;;;;;;0.20;0.00;;;;;;;;;;4970655;28;20675;-82
2023/12/05 04:23:46;;;;;;;0.20;0.10;;;;;;;;;;4958432;28;20049;-82
2023/12/05 04:26:21;;;;;;;0.20;0.10;;;;;;;;;;4942526;28;20053;-83
2023/12/05 04:28:47;;;;;;;0.20;0.10;;;;;;;;;;4972019;28;20427;-82
2023/12/05 04:31:13;;;;;;;0.20;0.17;;;;;;;;;;4969863;28;20081;-82
2023/12/05 04:33:40;;;;;;;0.20;0.00;;;;;;;;;;4942851;28;20573;-89
2023/12/05 04:36:07;;;;;;;0.20;0.10;;;;;;;;;;4978921;28;20042;-87
2023/12/05 04:38:36;;;;;;;0.20;0.00;;;;;;;;;;4978609;28;20529;-82
2023/12/05 04:41:02;;;;;;;0.20;0.10;;;;;;;;;;4968328;28;20053;-82
2023/12/05 04:43:30;;;;;;;0.20;0.10;;;;;;;;;;4953013;28;20586;-83
2023/12/05 04:45:56;;;;;;;0.25;0.17;;;;;;;;;;4974888;28;20698;-81
2023/12/05 04:48:22;;;;;;;0.73;0.47;;;;;;;;;;4952510;28;20038;-83
2023/12/05 04:50:48;;;;;;;0.20;0.10;;;;;;;;;;4950281;28;20073;-83
2023/12/05 04:53:14;;;;;;;0.20;0.20;;;;;;;;;;4968067;28;20102;-85
2023/12/05 04:55:40;;;;;;;0.20;0.13;;;;;;;;;;4972548;28;20604;-85
2023/12/05 04:58:07;;;;;;;0.20;0.10;;;;;;;;;;4973544;28;20050;-85
2023/12/05 05:00:33;;;;;;;0.20;0.10;;;;;;;;;;4969904;28;20511;-82
2023/12/05 05:02:59;;;;;;;0.20;0.10;;;;;;;;;;4971940;28;20452;-83
2023/12/05 05:05:25;;;;;;;0.20;0.00;;;;;;;;;;4972889;28;20042;-83
2023/12/05 05:07:51;;;;;;;0.20;0.10;;;;;;;;;;4961458;28;20060;-85
2023/12/05 05:10:17;;;;;;;0.20;0.10;;;;;;;;;;4977616;28;20038;-81
2023/12/05 05:12:43;;;;;;;0.30;0.30;;;;;;;;;;4970236;28;20046;-83
2023/12/05 05:15:09;;;;;;;0.20;0.10;;;;;;;;;;4971996;28;20224;-82
2023/12/05 05:17:35;;;;;;;0.32;0.25;;;;;;;;;;4956298;28;20054;-79
2023/12/05 05:20:01;;;;;;;0.20;0.00;;;;;;;;;;4962526;28;20053;-83
2023/12/05 05:22:27;;;;;;;0.20;0.10;;;;;;;;;;4974992;28;20046;-80
2023/12/05 05:24:53;;;;;;;0.20;0.00;;;;;;;;;;4989212;28;20332;-84
2023/12/05 05:27:19;;;;;;;0.20;0.10;;;;;;;;;;4985547;28;20042;-82
2023/12/05 05:29:45;;;;;;;0.20;0.10;;;;;;;;;;4954664;28;20429;-82
2023/12/05 05:32:11;;;;;;;0.20;0.10;;;;;;;;;;4966966;28;20034;-79
2023/12/05 05:34:37;;;;;;;0.20;0.10;;;;;;;;;;4976533;28;20045;-83
2023/12/05 05:37:03;;;;;;;1.10;0.57;;;;;;;;;;4965267;28;20100;-84
2023/12/05 05:39:29;;;;;;;0.22;0.15;;;;;;;;;;4968797;28;20039;-82
2023/12/05 05:41:55;;;;;;;0.20;0.10;;;;;;;;;;4973865;28;20639;-84
2023/12/05 05:44:21;;;;;;;0.22;0.15;;;;;;;;;;4974156;28;20046;-82
2023/12/05 05:46:47;;;;;;;0.20;0.10;;;;;;;;;;4954850;28;20054;-85
2023/12/05 05:49:13;;;;;;;0.40;0.20;;;;;;;;;;4976023;28;20081;-84
2023/12/05 05:51:39;;;;;;;0.20;0.10;;;;;;;;;;4983498;28;20113;-83
2023/12/05 05:54:05;;;;;;;0.20;0.00;;;;;;;;;;4972858;28;20030;-84
2023/12/05 05:56:38;;;;;;;0.20;0.10;;;;;;;;;;4959073;28;20061;-82
2023/12/05 05:59:04;;;;;;;;;;;;;;;;;;4954452;28;20425;-85
2023/12/05 06:01:30;;;;;;;0.20;0.10;;;;;;;;;;4956595;28;19993;-84
2023/12/05 06:03:56;;;;;;;0.32;0.20;;;;;;;;;;4972209;28;20712;-85
2023/12/05 06:06:22;;;;;;;0.20;0.10;;;;;;;;;;4972217;28;20129;-85
2023/12/05 06:08:48;;;;;;;0.20;0.10;;;;;;;;;;4955191;28;20050;-85
2023/12/05 06:11:14;;;;;;;0.75;0.45;;;;;;;;;;4970508;28;20038;-84
2023/12/05 06:13:40;;;;;;;0.20;0.10;;;;;;;;;;4973816;28;20038;-84
2023/12/05 06:16:07;;;;;;;0.20;0.10;;;;;;;;;;4970488;28;20389;-86
2023/12/05 06:18:34;;;;;;;0.20;0.10;;;;;;;;;;4959526;28;20121;-82
2023/12/05 06:21:00;;;;;;;0.20;0.10;;;;;;;;;;4944503;28;20088;-81
2023/12/05 06:23:26;;;;;;;0.20;0.13;;;;;;;;;;4960776;28;20042;-84
2023/12/05 06:25:52;;;;;;;0.20;0.10;;;;;;;;;;4975574;28;20088;-83
2023/12/05 06:28:18;;;;;;;0.20;0.10;;;;;;;;;;4959944;28;20055;-83
2023/12/05 06:30:44;;;;;;;0.60;0.30;;;;;;;;;;4958210;28;20073;-85
2023/12/05 06:33:11;;;;;;;0.20;0.10;;;;;;;;;;4960450;28;20113;-82
2023/12/05 06:35:59;;;;;;;0.20;0.10;;;;;;;;;;4990353;22;20053;-89
2023/12/05 06:38:43;;;;;;;0.20;0.10;;;;;;;;;;4943591;28;20051;-87
2023/12/05 06:41:41;;;;;;;0.20;0.10;;;;;;;;;;4958105;28;20034;-88
2023/12/05 06:47:44;;;;;;;0.20;0.08;;;;;;;;;;4897298;29;20048;-87
2023/12/05 06:50:25;;;;;;;0.20;0.10;;;;;;;;;;4904102;29;20055;-89
2023/12/05 06:52:57;;;;;;;0.20;0.10;;;;;;;;;;4893101;29;20051;-86
2023/12/05 06:57:59;;;;;;;0.20;0.10;;;;;;;;;;4985263;23;20502;-86
2023/12/05 07:00:33;;;;;;;0.35;0.22;;;;;;;;;;4951610;28;20070;-87
2023/12/05 07:03:16;;;;;;;0.20;0.10;;;;;;;;;;4960868;28;20050;-89
2023/12/05 07:14:44;;;;;;;0.20;0.00;;;;;;;;;;4936970;28;20050;-88
2023/12/05 07:17:14;;;;;;;0.40;0.20;;;;;;;;;;4915170;28;20067;-88
2023/12/05 07:19:40;;;;;;;0.20;0.10;;;;;;;;;;4941218;23;20044;-81
2023/12/05 07:22:06;;;;;;;0.20;0.10;;;;;;;;;;4942034;28;20051;-84
2023/12/05 07:24:32;;;;;;;0.20;0.10;;;;;;;;;;4944466;28;20529;-83
2023/12/05 07:26:58;;;;;;;0.20;0.20;;;;;;;;;;4941319;28;20031;-85
2023/12/05 07:29:24;;;;;;;0.90;0.43;;;;;;;;;;4927727;28;20522;-86
2023/12/05 07:31:50;;;;;;;0.20;0.10;;;;;;;;;;4925064;29;20043;-84
2023/12/05 07:34:16;;;;;;;0.63;0.57;;;;;;;;;;4942241;28;20035;-82
2023/12/05 07:36:42;;;;;;;0.20;0.10;;;;;;;;;;4928566;28;20046;-83
2023/12/05 07:39:09;;;;;;;0.20;0.10;;;;;;;;;;4927951;28;20050;-83
2023/12/05 07:41:36;;;;;;;5.47;1.20;;;;;;;;;;4924991;28;20039;-82
2023/12/05 07:44:02;;;;;;;2.00;0.52;;;;;;;;;;4924559;28;20157;-82
2023/12/05 07:46:28;;;;;;;0.20;0.10;;;;;;;;;;4922846;28;20928;-82
2023/12/05 07:48:54;;;;;;;0.20;0.10;;;;;;;;;;4927293;29;20040;-83
2023/12/05 07:51:20;;;;;;;0.20;0.20;;;;;;;;;;4924093;29;20246;-83
2023/12/05 07:53:48;;;;;;;0.52;0.30;;;;;;;;;;4923954;28;20035;-82
2023/12/05 07:56:14;;;;;;;0.20;0.10;;;;;;;;;;4940852;28;20067;-84
2023/12/05 07:58:40;;;;;;;4.15;0.50;;;;;;;;;;4924888;29;20547;-84
2023/12/05 08:01:07;;;;;;;0.20;0.10;;;;;;;;;;4937706;28;20601;-85
2023/12/05 08:03:34;;;;;;;0.20;0.10;;;;;;;;;;4935826;29;20047;-87
2023/12/05 08:06:01;;;;;;;0.30;0.20;;;;;;;;;;4929201;29;20316;-84
2023/12/05 08:08:29;;;;;;;0.20;0.10;;;;;;;;;;4929788;29;20038;-85
2023/12/05 08:10:55;;;;;;;0.20;0.10;;;;;;;;;;4926931;29;20043;-84
2023/12/05 08:13:21;;;;;;;0.20;0.20;;;;;;;;;;4932309;29;20253;-87
2023/12/05 08:15:48;;;;;;;0.20;0.10;;;;;;;;;;4928548;28;20063;-86
2023/12/05 08:18:14;;;;;;;0.20;0.10;;;;;;;;;;4935624;28;20046;-85
2023/12/05 08:20:40;;;;;;;0.20;0.10;;;;;;;;;;4940383;28;20506;-81
2023/12/05 08:23:06;;;;;;;0.20;0.10;;;;;;;;;;4940246;28;20051;-84
2023/12/05 08:25:32;;;;;;;0.20;0.20;;;;;;;;;;4937890;28;20059;-83
2023/12/05 08:28:01;;;;;;;0.30;0.30;;;;;;;;;;4925690;28;20067;-85
2023/12/05 08:30:27;;;;;;;0.63;0.40;;;;;;;;;;4934034;28;20045;-85
2023/12/05 08:32:53;;;;;;;0.20;0.10;;;;;;;;;;4924844;29;20074;-85
2023/12/05 08:35:19;;;;;;;0.70;0.70;;;;;;;;;;4924867;29;20035;-86
2023/12/05 08:37:46;;;;;;;0.20;0.10;;;;;;;;;;4925058;29;20035;-85
2023/12/05 08:40:12;;;;;;;0.20;0.10;;;;;;;;;;4937644;28;20114;-87
2023/12/05 08:42:40;;;;;;;0.20;0.10;;;;;;;;;;4931496;28;20039;-81
2023/12/05 08:45:09;;;;;;;0.20;0.20;;;;;;;;;;4922684;28;20043;-85
2023/12/05 08:47:35;;;;;;;0.20;0.10;;;;;;;;;;4922292;29;20043;-86
2023/12/05 08:50:01;;;;;;;0.20;0.10;;;;;;;;;;4923890;28;20090;-88
2023/12/05 08:52:27;;;;;;;0.20;0.10;;;;;;;;;;4923453;29;20067;-85
2023/12/05 08:54:53;;;;;;;0.20;0.10;;;;;;;;;;4920460;29;20067;-84
2023/12/05 08:57:19;;;;;;;0.20;0.10;;;;;;;;;;4936174;28;20151;-87
2023/12/05 08:59:45;;;;;;;0.20;0.10;;;;;;;;;;4943928;28;20564;-84
2023/12/05 09:02:11;;;;;;;0.20;0.10;;;;;;;;;;4924389;28;20057;-82
2023/12/05 09:04:37;;;;;;;0.20;0.10;;;;;;;;;;4922400;28;20039;-86
2023/12/05 09:07:04;;;;;;;0.20;0.10;;;;;;;;;;4938806;29;20448;-85
2023/12/05 09:09:30;;;;;;;0.20;0.15;;;;;;;;;;4938352;28;20456;-84
2023/12/05 09:11:59;;;;;;;0.20;0.10;;;;;;;;;;4924146;29;20047;-84
2023/12/05 09:14:25;;;;;;;0.20;0.08;;;;;;;;;;4921669;29;20063;-86
2023/12/05 09:16:51;;;;;;;0.25;0.22;;;;;;;;;;4941368;28;20463;-81
2023/12/05 09:19:17;;;;;;;0.20;0.10;;;;;;;;;;4927196;28;20127;-83
2023/12/05 09:21:44;;;;;;;0.20;0.10;;;;;;;;;;4925040;29;20488;-88
2023/12/05 09:24:10;;;;;;;0.22;0.13;;;;;;;;;;4926187;29;20090;-84
2023/12/05 09:26:36;;;;;;;0.85;0.63;;;;;;;;;;4930108;29;20045;-84
2023/12/05 09:29:02;;;;;;;0.20;0.10;;;;;;;;;;4942082;28;20555;-86
2023/12/05 09:31:30;;;;;;;0.20;0.10;;;;;;;;;;4926137;29;20078;-85
2023/12/05 09:33:56;;;;;;;0.30;0.30;;;;;;;;;;4927836;29;20426;-87
2023/12/05 09:36:22;;;;;;;0.20;0.10;;;;;;;;;;4936536;28;20567;-85
2023/12/05 09:38:48;;;;;;;0.20;0.10;;;;;;;;;;4928967;29;20043;-82
2023/12/05 09:41:16;;;;;;;0.20;0.10;;;;;;;;;;4929832;29;20055;-87
2023/12/05 09:43:42;;;;;;;0.20;0.10;;;;;;;;;;4921153;29;20051;-81
2023/12/05 09:46:09;;;;;;;0.20;0.10;;;;;;;;;;4933405;28;20109;-85
2023/12/05 09:48:41;;;;;;;0.20;0.10;;;;;;;;;;4927088;29;20472;-86
2023/12/05 09:51:08;;;;;;;0.20;0.10;;;;;;;;;;4945666;29;20082;-85
2023/12/05 09:53:34;;;;;;;0.20;0.10;;;;;;;;;;4928908;28;20046;-85
2023/12/05 09:56:01;;;;;;;0.55;0.35;;;;;;;;;;4920927;29;20394;-84
2023/12/05 09:58:27;;;;;;;0.20;0.13;;;;;;;;;;4930691;29;20139;-85
2023/12/05 10:00:54;;;;;;;0.20;0.10;;;;;;;;;;4926605;29;20043;-84
2023/12/05 10:03:21;;;;;;;0.20;0.10;;;;;;;;;;4930862;29;20466;-86
2023/12/05 10:05:48;;;;;;;0.20;0.10;;;;;;;;;;4931750;29;20582;-86
2023/12/05 10:08:15;;;;;;;0.20;0.20;;;;;;;;;;4928949;29;20043;-83
2023/12/05 10:10:42;;;;;;;0.20;0.10;;;;;;;;;;4930016;29;20466;-84
2023/12/05 10:13:09;;;;;;;0.28;0.20;;;;;;;;;;4924885;29;20051;-85
2023/12/05 10:15:35;;;;;;;0.73;0.28;;;;;;;;;;4927256;28;20040;-85
2023/12/05 10:18:02;;;;;;;0.20;0.10;;;;;;;;;;4932797;29;20141;-85
2023/12/05 10:20:28;;;;;;;0.30;0.20;;;;;;;;;;4944850;28;20035;-86
2023/12/05 10:22:54;;;;;;;0.20;0.10;;;;;;;;;;4944674;28;20035;-83
2023/12/05 10:25:20;;;;;;;0.20;0.00;;;;;;;;;;4927346;29;20032;-85
2023/12/05 10:28:00;;;;;;;0.20;0.10;;;;;;;;;;4930966;29;20085;-86
2023/12/05 10:30:33;;;;;;;0.20;0.00;;;;;;;;;;4924638;29;20039;-84
2023/12/05 10:33:15;;;;;;;0.20;0.10;;;;;;;;;;4947552;29;20078;-86
2023/12/05 10:35:41;;;;;;;0.20;0.00;;;;;;;;;;4925545;29;20040;-83
2023/12/05 10:38:11;;;;;;;0.30;0.25;;;;;;;;;;4927410;29;20043;-85
2023/12/05 10:40:56;;;;;;;0.20;0.10;;;;;;;;;;4928450;28;20048;-86
2023/12/05 10:43:23;;;;;;;0.30;0.20;;;;;;;;;;4929309;28;20042;-84
2023/12/05 10:45:49;;;;;;;1.67;0.43;;;;;;;;;;4930751;28;20087;-81
2023/12/05 10:48:16;;;;;;;0.40;0.20;;;;;;;;;;4929709;28;20135;-87
2023/12/05 10:50:43;;;;;;;0.20;0.05;;;;;;;;;;4944622;28;20471;-84
2023/12/05 10:53:09;;;;;;;0.28;0.10;;;;;;;;;;4926756;28;20075;-83
2023/12/05 10:55:36;;;;;;;3.90;1.65;;;;;;;;;;4944092;28;20047;-83
2023/12/05 10:58:03;;;;;;;0.20;0.10;;;;;;;;;;4929169;29;20485;-85
2023/12/05 11:00:29;;;;;;;0.20;0.10;;;;;;;;;;4956118;28;20040;-84
2023/12/05 11:02:56;;;;;;;0.20;0.10;;;;;;;;;;4934409;28;20039;-84
2023/12/05 11:05:22;;;;;;;0.20;0.20;;;;;;;;;;4929606;28;20411;-84
2023/12/05 11:07:48;;;;;;;0.20;0.10;;;;;;;;;;4930808;28;20725;-85
2023/12/05 11:10:16;;;;;;;0.20;0.10;;;;;;;;;;4952939;28;20032;-84
2023/12/05 11:12:45;;;;;;;0.20;0.10;;;;;;;;;;4943832;28;20040;-85
2023/12/05 11:15:13;;;;;;;0.20;0.10;;;;;;;;;;4928696;28;20043;-85
2023/12/05 11:17:45;;;;;;;0.75;0.68;;;;;;;;;;4942990;28;20098;-88
2023/12/05 11:20:20;;;;;;;0.20;0.10;;;;;;;;;;4941104;28;20131;-83
2023/12/05 11:23:02;;;;;;;1.67;0.70;;;;;;;;;;4923368;29;20094;-85
2023/12/05 11:25:44;;;;;;;0.28;0.13;;;;;;;;;;4943718;28;20094;-87
2023/12/05 11:28:17;;;;;;;0.20;0.10;;;;;;;;;;4932090;29;20540;-86
2023/12/05 11:30:52;;;;;;;0.20;0.10;;;;;;;;;;4925023;28;23301;-86
2023/12/05 11:33:29;;;;;;;1.17;0.85;;;;;;;;;;4947543;28;20511;-84
2023/12/05 11:36:05;;;;;;;0.20;0.10;;;;;;;;;;4925420;29;20050;-81
2023/12/05 11:38:32;;;;;;;0.20;0.10;;;;;;;;;;4931758;28;20039;-82
2023/12/05 11:41:12;;;;;;;0.20;0.10;;;;;;;;;;4928448;29;20039;-85
2023/12/05 11:43:39;;;;;;;0.30;0.30;;;;;;;;;;4925737;28;20086;-82
2023/12/05 11:46:05;;;;;;;0.20;0.10;;;;;;;;;;4924961;29;20043;-85
2023/12/05 11:48:33;;;;;;;0.20;0.10;;;;;;;;;;4930595;28;20498;-85
2023/12/05 11:50:59;;;;;;;0.20;0.20;;;;;;;;;;4932988;29;20047;-86
2023/12/05 11:53:25;;;;;;;0.28;0.22;;;;;;;;;;4949361;28;20039;-85
2023/12/05 11:55:51;;;;;;;0.22;0.15;;;;;;;;;;4925876;29;20035;-83
2023/12/05 11:58:34;;;;;;;0.20;0.10;;;;;;;;;;4925782;29;20039;-87
2023/12/05 12:01:07;;;;;;;0.57;0.57;;;;;;;;;;4926817;29;20423;-84
2023/12/05 12:03:45;;;;;;;0.20;0.00;;;;;;;;;;4944241;28;20039;-87
2023/12/05 12:06:11;;;;;;;0.20;0.10;;;;;;;;;;4944714;28;20516;-84
2023/12/05 12:08:37;;;;;;;0.20;0.10;;;;;;;;;;4933668;28;20144;-83
2023/12/05 12:11:04;;;;;;;0.20;0.10;;;;;;;;;;4939313;28;20046;-85
2023/12/05 12:13:30;;;;;;;0.20;0.10;;;;;;;;;;4926676;29;20116;-85
2023/12/05 12:15:57;;;;;;;0.20;0.10;;;;;;;;;;4940597;28;20027;-86
2023/12/05 12:18:25;;;;;;;0.20;0.10;;;;;;;;;;4944059;28;20047;-84
2023/12/05 12:20:51;;;;;;;0.20;0.10;;;;;;;;;;4935205;29;20083;-85
2023/12/05 12:23:17;;;;;;;0.20;0.10;;;;;;;;;;4931578;29;20039;-84
2023/12/05 12:25:54;;;;;;;0.20;0.10;;;;;;;;;;4922252;28;20079;-82
2023/12/05 12:28:28;;;;;;;0.20;0.10;;;;;;;;;;4925764;29;20055;-87
2023/12/05 12:30:54;;;;;;;0.20;0.10;;;;;;;;;;4926875;29;20099;-86
2023/12/05 12:33:22;;;;;;;0.38;0.30;;;;;;;;;;4923596;29;20035;-84
2023/12/05 12:35:49;;;;;;;0.20;0.15;;;;;;;;;;4922190;29;20036;-86
2023/12/05 12:38:15;;;;;;;0.22;0.20;;;;;;;;;;4934115;29;20396;-85
2023/12/05 12:40:42;;;;;;;0.20;0.20;;;;;;;;;;4927076;29;20121;-88
2023/12/05 12:43:08;;;;;;;0.20;0.13;;;;;;;;;;4934264;29;20036;-86
2023/12/05 12:45:37;;;;;;;2.72;0.43;;;;;;;;;;4933624;29;20047;-88
2023/12/05 12:48:04;;;;;;;0.20;0.10;;;;;;;;;;4937197;29;20510;-83
2023/12/05 12:50:30;;;;;;;0.28;0.28;;;;;;;;;;4936259;29;20046;-85
2023/12/05 12:52:56;;;;;;;0.20;0.10;;;;;;;;;;4939547;28;20042;-84
2023/12/05 12:55:23;;;;;;;0.20;0.10;;;;;;;;;;4949043;28;20031;-88
2023/12/05 12:57:55;;;;;;;0.20;0.10;;;;;;;;;;4948378;28;20067;-82
2023/12/05 13:00:22;;;;;;;3.42;0.75;;;;;;;;;;4934049;29;20059;-87
2023/12/05 13:02:55;;;;;;;0.20;0.10;;;;;;;;;;4940547;29;20488;-84
2023/12/05 13:05:31;;;;;;;0.20;0.10;;;;;;;;;;4935390;29;20113;-85
2023/12/05 13:07:57;;;;;;;0.20;0.10;;;;;;;;;;4936630;29;20054;-86
2023/12/05 13:10:24;;;;;;;0.57;0.52;;;;;;;;;;4931259;28;20035;-83
2023/12/05 13:12:50;;;;;;;0.20;0.10;;;;;;;;;;4942242;28;20047;-83
2023/12/05 13:15:23;;;;;;;0.20;0.10;;;;;;;;;;4946255;29;20039;-84
2023/12/05 13:17:59;;;;;;;0.20;0.10;;;;;;;;;;4954308;28;21096;-84
2023/12/05 13:20:25;;;;;;;0.20;0.10;;;;;;;;;;4948986;23;20035;-87
2023/12/05 13:22:52;;;;;;;0.20;0.00;;;;;;;;;;4930324;28;20989;-84
2023/12/05 13:25:22;;;;;;;0.20;0.10;;;;;;;;;;4930179;28;20126;-84
2023/12/05 13:27:48;;;;;;;0.20;0.10;;;;;;;;;;4924609;28;20039;-85
2023/12/05 13:30:17;;;;;;;0.20;0.10;;;;;;;;;;4931716;28;20508;-86
2023/12/05 13:32:44;;;;;;;0.20;0.10;;;;;;;;;;4929981;28;20640;-85
2023/12/05 13:35:10;;;;;;;0.30;0.20;;;;;;;;;;4937969;28;20495;-85
2023/12/05 13:37:37;;;;;;;0.20;0.10;;;;;;;;;;4917149;28;20042;-83
2023/12/05 13:40:06;;;;;;;0.20;0.20;;;;;;;;;;4943176;28;20043;-82
2023/12/05 13:42:35;;;;;;;0.75;0.47;;;;;;;;;;4941670;28;20791;-80
2023/12/05 13:45:01;;;;;;;0.20;0.10;;;;;;;;;;4942884;28;20053;-84
2023/12/05 13:47:30;;;;;;;0.20;0.10;;;;;;;;;;4922518;28;20054;-82
2023/12/05 13:49:57;;;;;;;0.20;0.10;;;;;;;;;;4943913;28;20050;-82
2023/12/05 13:52:34;;;;;;;0.20;0.10;;;;;;;;;;4925306;28;20525;-85
2023/12/05 13:55:03;;;;;;;0.20;0.10;;;;;;;;;;4943980;28;20487;-83
2023/12/05 13:57:31;;;;;;;0.20;0.00;;;;;;;;;;4941000;28;20207;-82
2023/12/05 14:00:00;;;;;;;0.85;0.68;;;;;;;;;;4957484;28;20050;-84
2023/12/05 14:02:28;;;;;;;0.20;0.10;;;;;;;;;;4941791;28;20504;-84
2023/12/05 14:04:54;;;;;;;0.30;0.30;;;;;;;;;;4927307;28;20058;-84
2023/12/05 14:07:27;;;;;;;0.20;0.10;;;;;;;;;;4942295;28;20073;-83
2023/12/05 14:09:53;;;;;;;0.20;0.13;;;;;;;;;;4943455;28;20483;-82
2023/12/05 14:12:19;;;;;;;0.20;0.10;;;;;;;;;;4929657;28;20039;-84
2023/12/05 14:14:46;;;;;;;0.20;0.00;;;;;;;;;;4946280;28;20514;-84
2023/12/05 14:17:17;;;;;;;0.28;0.20;;;;;;;;;;4940676;28;20050;-83
2023/12/05 14:19:43;;;;;;;0.20;0.10;;;;;;;;;;4941930;28;20141;-84
2023/12/05 14:22:09;;;;;;;0.45;0.45;;;;;;;;;;4921603;28;20057;-84
2023/12/05 14:24:36;;;;;;;0.20;0.20;;;;;;;;;;4929410;28;20038;-84
2023/12/05 14:27:02;;;;;;;0.20;0.20;;;;;;;;;;4944916;28;20133;-84
2023/12/05 14:29:32;;;;;;;0.22;0.22;;;;;;;;;;4935407;28;20047;-84
2023/12/05 14:32:03;;;;;;;0.20;0.10;;;;;;;;;;4940116;28;20042;-86
2023/12/05 14:34:29;;;;;;;0.20;0.10;;;;;;;;;;4943395;28;20065;-85
2023/12/05 14:37:01;;;;;;;1.08;0.50;;;;;;;;;;4932964;28;20925;-87
2023/12/05 14:39:31;;;;;;;0.50;0.50;;;;;;;;;;4941821;28;20039;-86
2023/12/05 14:41:57;;;;;;;0.80;0.80;;;;;;;;;;4945025;28;20046;-85
2023/12/05 14:44:25;;;;;;;0.20;0.20;;;;;;;;;;4924223;28;20062;-80
2023/12/05 14:46:51;;;;;;;1.67;0.68;;;;;;;;;;4944440;28;20043;-82
2023/12/05 14:49:17;;;;;;;0.65;0.65;;;;;;;;;;4941205;28;20105;-83
2023/12/05 14:51:43;;;;;;;0.20;0.00;;;;;;;;;;4957038;28;20047;-82
2023/12/05 14:54:09;;;;;;;0.40;0.40;;;;;;;;;;4943957;28;20046;-84
2023/12/05 14:56:35;;;;;;;0.20;0.20;;;;;;;;;;4940270;28;20105;-84
2023/12/05 14:59:01;;;;;;;0.45;0.25;;;;;;;;;;4937890;28;20519;-83
2023/12/05 15:01:30;;;;;;;0.20;0.10;;;;;;;;;;4960450;28;20047;-83